sensor_id;sensor_type;location;lat;lon;timestamp;P1;durP1;ratioP1;P2;durP2;ratioP2
9860;SDS011;4969;52.304;4.968;2023-08-06T00:01:52;6.82;;;6.22;;
9860;SDS011;4969;52.304;4.968;2023-08-06T00:04:19;6.18;;;5.72;;
9860;SDS011;4969;52.304;4.968;2023-08-06T00:06:47;5.80;;;5.40;;
9860;SDS011;4969;52.304;4.968;2023-08-06T00:09:13;6.47;;;6.00;;
9860;SDS011;4969;52.304;4.968;2023-08-06T00:11:40;7.00;;;6.40;;
9860;SDS011;4969;52.304;4.968;2023-08-06T00:14:08;7.60;;;7.00;;
9860;SDS011;4969;52.304;4.968;2023-08-06T00:16:35;6.45;;;5.97;;
9860;SDS011;4969;52.304;4.968;2023-08-06T00:19:02;7.30;;;6.80;;
9860;SDS011;4969;52.304;4.968;2023-08-06T00:21:28;6.85;;;6.45;;
9860;SDS011;4969;52.304;4.968;2023-08-06T00:23:56;7.20;;;6.70;;
9860;SDS011;4969;52.304;4.968;2023-08-06T00:26:23;7.47;;;6.88;;
9860;SDS011;4969;52.304;4.968;2023-08-06T00:28:49;7.22;;;6.53;;
9860;SDS011;4969;52.304;4.968;2023-08-06T00:31:16;7.53;;;6.90;;
9860;SDS011;4969;52.304;4.968;2023-08-06T00:33:43;8.30;;;7.70;;
9860;SDS011;4969;52.304;4.968;2023-08-06T00:36:10;6.25;;;5.85;;
9860;SDS011;4969;52.304;4.968;2023-08-06T00:38:36;7.40;;;6.90;;
9860;SDS011;4969;52.304;4.968;2023-08-06T00:41:04;6.30;;;5.85;;
9860;SDS011;4969;52.304;4.968;2023-08-06T00:43:31;8.20;;;7.50;;
9860;SDS011;4969;52.304;4.968;2023-08-06T00:45:57;7.35;;;6.85;;
9860;SDS011;4969;52.304;4.968;2023-08-06T00:48:24;6.90;;;6.35;;
9860;SDS011;4969;52.304;4.968;2023-08-06T00:50:51;6.82;;;6.32;;
9860;SDS011;4969;52.304;4.968;2023-08-06T00:53:17;6.85;;;6.35;;
9860;SDS011;4969;52.304;4.968;2023-08-06T00:55:44;7.22;;;6.72;;
9860;SDS011;4969;52.304;4.968;2023-08-06T00:58:13;7.15;;;6.60;;
9860;SDS011;4969;52.304;4.968;2023-08-06T01:00:42;6.10;;;5.68;;
9860;SDS011;4969;52.304;4.968;2023-08-06T01:03:08;7.35;;;6.75;;
9860;SDS011;4969;52.304;4.968;2023-08-06T01:05:35;6.60;;;5.70;;
9860;SDS011;4969;52.304;4.968;2023-08-06T01:08:06;6.45;;;5.93;;
9860;SDS011;4969;52.304;4.968;2023-08-06T01:10:40;7.15;;;6.40;;
9860;SDS011;4969;52.304;4.968;2023-08-06T01:13:22;6.32;;;5.93;;
9860;SDS011;4969;52.304;4.968;2023-08-06T01:15:54;7.00;;;6.50;;
9860;SDS011;4969;52.304;4.968;2023-08-06T01:18:23;7.32;;;6.65;;
9860;SDS011;4969;52.304;4.968;2023-08-06T01:20:51;7.20;;;6.55;;
9860;SDS011;4969;52.304;4.968;2023-08-06T01:23:17;5.95;;;5.35;;
9860;SDS011;4969;52.304;4.968;2023-08-06T01:25:46;6.32;;;5.90;;
9860;SDS011;4969;52.304;4.968;2023-08-06T01:28:18;6.22;;;5.63;;
9860;SDS011;4969;52.304;4.968;2023-08-06T01:30:52;7.38;;;6.88;;
9860;SDS011;4969;52.304;4.968;2023-08-06T01:33:21;8.38;;;7.68;;
9860;SDS011;4969;52.304;4.968;2023-08-06T01:35:50;7.55;;;6.95;;
9860;SDS011;4969;52.304;4.968;2023-08-06T01:38:19;6.75;;;6.25;;
9860;SDS011;4969;52.304;4.968;2023-08-06T01:40:46;7.53;;;6.82;;
9860;SDS011;4969;52.304;4.968;2023-08-06T01:43:13;7.82;;;7.20;;
9860;SDS011;4969;52.304;4.968;2023-08-06T01:45:40;8.27;;;7.53;;
9860;SDS011;4969;52.304;4.968;2023-08-06T01:48:06;7.75;;;7.20;;
9860;SDS011;4969;52.304;4.968;2023-08-06T01:50:33;7.47;;;6.88;;
9860;SDS011;4969;52.304;4.968;2023-08-06T01:53:01;7.32;;;6.82;;
9860;SDS011;4969;52.304;4.968;2023-08-06T01:55:28;8.10;;;7.40;;
9860;SDS011;4969;52.304;4.968;2023-08-06T01:57:55;8.85;;;8.15;;
9860;SDS011;4969;52.304;4.968;2023-08-06T02:00:22;9.40;;;8.40;;
9860;SDS011;4969;52.304;4.968;2023-08-06T02:02:48;9.98;;;8.93;;
9860;SDS011;4969;52.304;4.968;2023-08-06T02:05:15;8.80;;;8.00;;
9860;SDS011;4969;52.304;4.968;2023-08-06T02:07:41;8.48;;;7.78;;
9860;SDS011;4969;52.304;4.968;2023-08-06T02:10:09;9.85;;;8.60;;
9860;SDS011;4969;52.304;4.968;2023-08-06T02:12:36;9.80;;;8.80;;
9860;SDS011;4969;52.304;4.968;2023-08-06T02:15:03;9.55;;;8.73;;
9860;SDS011;4969;52.304;4.968;2023-08-06T02:17:30;9.00;;;8.35;;
9860;SDS011;4969;52.304;4.968;2023-08-06T02:19:57;8.30;;;7.60;;
9860;SDS011;4969;52.304;4.968;2023-08-06T02:22:23;10.35;;;8.27;;
9860;SDS011;4969;52.304;4.968;2023-08-06T02:24:50;10.15;;;9.00;;
9860;SDS011;4969;52.304;4.968;2023-08-06T02:27:18;7.30;;;6.65;;
9860;SDS011;4969;52.304;4.968;2023-08-06T02:29:45;9.00;;;8.15;;
9860;SDS011;4969;52.304;4.968;2023-08-06T02:32:12;8.05;;;7.40;;
9860;SDS011;4969;52.304;4.968;2023-08-06T02:34:38;7.85;;;7.15;;
9860;SDS011;4969;52.304;4.968;2023-08-06T02:37:05;9.25;;;8.45;;
9860;SDS011;4969;52.304;4.968;2023-08-06T02:39:32;8.60;;;7.75;;
9860;SDS011;4969;52.304;4.968;2023-08-06T02:41:58;9.45;;;8.65;;
9860;SDS011;4969;52.304;4.968;2023-08-06T02:44:28;8.20;;;7.60;;
9860;SDS011;4969;52.304;4.968;2023-08-06T02:46:54;7.50;;;6.90;;
9860;SDS011;4969;52.304;4.968;2023-08-06T02:49:21;8.90;;;8.00;;
9860;SDS011;4969;52.304;4.968;2023-08-06T02:51:47;10.10;;;9.07;;
9860;SDS011;4969;52.304;4.968;2023-08-06T02:54:14;11.02;;;10.13;;
9860;SDS011;4969;52.304;4.968;2023-08-06T02:56:42;9.07;;;8.30;;
9860;SDS011;4969;52.304;4.968;2023-08-06T02:59:09;12.77;;;9.85;;
9860;SDS011;4969;52.304;4.968;2023-08-06T03:01:37;11.15;;;10.05;;
9860;SDS011;4969;52.304;4.968;2023-08-06T03:04:04;9.30;;;8.60;;
9860;SDS011;4969;52.304;4.968;2023-08-06T03:06:30;9.65;;;8.80;;
9860;SDS011;4969;52.304;4.968;2023-08-06T03:08:57;8.10;;;7.40;;
9860;SDS011;4969;52.304;4.968;2023-08-06T03:11:24;10.20;;;9.20;;
9860;SDS011;4969;52.304;4.968;2023-08-06T03:13:50;12.57;;;11.48;;
9860;SDS011;4969;52.304;4.968;2023-08-06T03:16:17;13.40;;;12.30;;
9860;SDS011;4969;52.304;4.968;2023-08-06T03:18:45;12.57;;;11.50;;
9860;SDS011;4969;52.304;4.968;2023-08-06T03:21:12;10.77;;;9.98;;
9860;SDS011;4969;52.304;4.968;2023-08-06T03:23:38;12.25;;;11.30;;
9860;SDS011;4969;52.304;4.968;2023-08-06T03:26:04;13.93;;;12.68;;
9860;SDS011;4969;52.304;4.968;2023-08-06T03:28:31;15.27;;;13.80;;
9860;SDS011;4969;52.304;4.968;2023-08-06T03:31:00;13.63;;;12.55;;
9860;SDS011;4969;52.304;4.968;2023-08-06T03:33:27;14.38;;;13.07;;
9860;SDS011;4969;52.304;4.968;2023-08-06T03:35:55;14.93;;;13.63;;
9860;SDS011;4969;52.304;4.968;2023-08-06T03:38:22;14.63;;;13.43;;
9860;SDS011;4969;52.304;4.968;2023-08-06T03:40:49;14.13;;;12.85;;
9860;SDS011;4969;52.304;4.968;2023-08-06T03:43:16;15.45;;;14.10;;
9860;SDS011;4969;52.304;4.968;2023-08-06T03:45:42;15.50;;;14.05;;
9860;SDS011;4969;52.304;4.968;2023-08-06T03:48:09;17.95;;;16.27;;
9860;SDS011;4969;52.304;4.968;2023-08-06T03:50:35;15.10;;;13.80;;
9860;SDS011;4969;52.304;4.968;2023-08-06T03:53:04;15.77;;;14.40;;
9860;SDS011;4969;52.304;4.968;2023-08-06T03:55:31;16.40;;;14.80;;
9860;SDS011;4969;52.304;4.968;2023-08-06T03:57:57;16.75;;;15.40;;
9860;SDS011;4969;52.304;4.968;2023-08-06T04:00:24;18.25;;;16.65;;
9860;SDS011;4969;52.304;4.968;2023-08-06T04:02:50;18.05;;;16.35;;
9860;SDS011;4969;52.304;4.968;2023-08-06T04:05:18;17.27;;;15.88;;
9860;SDS011;4969;52.304;4.968;2023-08-06T04:07:44;19.02;;;17.38;;
9860;SDS011;4969;52.304;4.968;2023-08-06T04:10:12;18.30;;;16.75;;
9860;SDS011;4969;52.304;4.968;2023-08-06T04:12:39;19.50;;;17.70;;
9860;SDS011;4969;52.304;4.968;2023-08-06T04:15:06;19.73;;;18.00;;
9860;SDS011;4969;52.304;4.968;2023-08-06T04:17:33;19.65;;;17.85;;
9860;SDS011;4969;52.304;4.968;2023-08-06T04:20:00;19.88;;;18.08;;
9860;SDS011;4969;52.304;4.968;2023-08-06T04:22:27;18.83;;;17.20;;
9860;SDS011;4969;52.304;4.968;2023-08-06T04:24:54;19.75;;;17.95;;
9860;SDS011;4969;52.304;4.968;2023-08-06T04:27:22;19.80;;;18.10;;
9860;SDS011;4969;52.304;4.968;2023-08-06T04:29:48;18.85;;;17.15;;
9860;SDS011;4969;52.304;4.968;2023-08-06T04:32:15;19.35;;;17.33;;
9860;SDS011;4969;52.304;4.968;2023-08-06T04:34:42;21.63;;;19.83;;
9860;SDS011;4969;52.304;4.968;2023-08-06T04:37:09;20.83;;;19.05;;
9860;SDS011;4969;52.304;4.968;2023-08-06T04:39:36;21.40;;;19.30;;
9860;SDS011;4969;52.304;4.968;2023-08-06T04:42:02;22.08;;;19.98;;
9860;SDS011;4969;52.304;4.968;2023-08-06T04:44:31;21.08;;;19.08;;
9860;SDS011;4969;52.304;4.968;2023-08-06T04:46:57;21.35;;;19.35;;
9860;SDS011;4969;52.304;4.968;2023-08-06T04:49:24;21.20;;;19.25;;
9860;SDS011;4969;52.304;4.968;2023-08-06T04:51:51;20.73;;;19.02;;
9860;SDS011;4969;52.304;4.968;2023-08-06T04:54:17;21.48;;;19.67;;
9860;SDS011;4969;52.304;4.968;2023-08-06T04:56:44;19.58;;;17.67;;
9860;SDS011;4969;52.304;4.968;2023-08-06T04:59:10;17.58;;;16.08;;
9860;SDS011;4969;52.304;4.968;2023-08-06T05:01:38;16.23;;;14.82;;
9860;SDS011;4969;52.304;4.968;2023-08-06T05:04:05;7.03;;;6.57;;
9860;SDS011;4969;52.304;4.968;2023-08-06T05:06:32;4.30;;;4.00;;
9860;SDS011;4969;52.304;4.968;2023-08-06T05:08:58;2.95;;;2.65;;
9860;SDS011;4969;52.304;4.968;2023-08-06T05:11:25;5.53;;;3.92;;
9860;SDS011;4969;52.304;4.968;2023-08-06T05:13:51;2.30;;;2.20;;
9860;SDS011;4969;52.304;4.968;2023-08-06T05:16:18;3.33;;;3.10;;
9860;SDS011;4969;52.304;4.968;2023-08-06T05:18:46;4.03;;;3.83;;
9860;SDS011;4969;52.304;4.968;2023-08-06T05:21:13;3.85;;;3.58;;
9860;SDS011;4969;52.304;4.968;2023-08-06T05:23:41;3.75;;;3.55;;
9860;SDS011;4969;52.304;4.968;2023-08-06T05:26:08;4.88;;;4.47;;
9860;SDS011;4969;52.304;4.968;2023-08-06T05:28:34;4.63;;;4.32;;
9860;SDS011;4969;52.304;4.968;2023-08-06T05:31:02;5.07;;;4.70;;
9860;SDS011;4969;52.304;4.968;2023-08-06T05:33:30;4.70;;;4.40;;
9860;SDS011;4969;52.304;4.968;2023-08-06T05:35:58;5.20;;;4.80;;
9860;SDS011;4969;52.304;4.968;2023-08-06T05:38:24;5.00;;;4.65;;
9860;SDS011;4969;52.304;4.968;2023-08-06T05:40:51;5.30;;;4.90;;
9860;SDS011;4969;52.304;4.968;2023-08-06T05:43:18;6.07;;;5.60;;
9860;SDS011;4969;52.304;4.968;2023-08-06T05:45:44;6.25;;;5.85;;
9860;SDS011;4969;52.304;4.968;2023-08-06T05:48:11;6.22;;;5.72;;
9860;SDS011;4969;52.304;4.968;2023-08-06T05:50:38;7.03;;;6.53;;
9860;SDS011;4969;52.304;4.968;2023-08-06T05:53:06;6.65;;;6.15;;
9860;SDS011;4969;52.304;4.968;2023-08-06T05:55:32;10.20;;;9.40;;
9860;SDS011;4969;52.304;4.968;2023-08-06T05:57:59;8.80;;;8.20;;
9860;SDS011;4969;52.304;4.968;2023-08-06T06:00:26;10.20;;;9.48;;
9860;SDS011;4969;52.304;4.968;2023-08-06T06:02:52;7.20;;;6.70;;
9860;SDS011;4969;52.304;4.968;2023-08-06T06:05:19;7.22;;;6.72;;
9860;SDS011;4969;52.304;4.968;2023-08-06T06:07:47;5.80;;;5.40;;
9860;SDS011;4969;52.304;4.968;2023-08-06T06:10:15;5.25;;;4.93;;
9860;SDS011;4969;52.304;4.968;2023-08-06T06:12:41;4.90;;;4.50;;
9860;SDS011;4969;52.304;4.968;2023-08-06T06:15:08;4.68;;;4.28;;
9860;SDS011;4969;52.304;4.968;2023-08-06T06:17:35;5.35;;;4.95;;
9860;SDS011;4969;52.304;4.968;2023-08-06T06:20:02;5.35;;;4.85;;
9860;SDS011;4969;52.304;4.968;2023-08-06T06:22:29;5.38;;;4.90;;
9860;SDS011;4969;52.304;4.968;2023-08-06T06:24:56;6.15;;;5.65;;
9860;SDS011;4969;52.304;4.968;2023-08-06T06:27:24;6.22;;;5.72;;
9860;SDS011;4969;52.304;4.968;2023-08-06T06:29:51;6.78;;;6.28;;
9860;SDS011;4969;52.304;4.968;2023-08-06T06:32:19;7.15;;;6.65;;
9860;SDS011;4969;52.304;4.968;2023-08-06T06:34:46;7.32;;;6.68;;
9860;SDS011;4969;52.304;4.968;2023-08-06T06:37:12;7.65;;;7.05;;
9860;SDS011;4969;52.304;4.968;2023-08-06T06:39:39;7.15;;;6.65;;
9860;SDS011;4969;52.304;4.968;2023-08-06T06:42:06;7.45;;;6.85;;
9860;SDS011;4969;52.304;4.968;2023-08-06T06:44:34;7.50;;;6.90;;
9860;SDS011;4969;52.304;4.968;2023-08-06T06:47:00;8.73;;;7.93;;
9860;SDS011;4969;52.304;4.968;2023-08-06T06:49:27;9.02;;;7.00;;
9860;SDS011;4969;52.304;4.968;2023-08-06T06:51:54;6.97;;;6.47;;
9860;SDS011;4969;52.304;4.968;2023-08-06T06:54:20;6.72;;;6.10;;
9860;SDS011;4969;52.304;4.968;2023-08-06T06:56:47;7.40;;;6.80;;
9860;SDS011;4969;52.304;4.968;2023-08-06T06:59:13;5.20;;;4.70;;
9860;SDS011;4969;52.304;4.968;2023-08-06T07:01:41;5.03;;;4.63;;
9860;SDS011;4969;52.304;4.968;2023-08-06T07:04:08;6.05;;;4.40;;
9860;SDS011;4969;52.304;4.968;2023-08-06T07:06:35;5.07;;;4.18;;
9860;SDS011;4969;52.304;4.968;2023-08-06T07:09:01;4.45;;;3.88;;
9860;SDS011;4969;52.304;4.968;2023-08-06T07:11:28;6.85;;;4.00;;
9860;SDS011;4969;52.304;4.968;2023-08-06T07:13:55;4.72;;;4.13;;
9860;SDS011;4969;52.304;4.968;2023-08-06T07:16:23;4.50;;;4.10;;
9860;SDS011;4969;52.304;4.968;2023-08-06T07:18:51;3.80;;;3.50;;
9860;SDS011;4969;52.304;4.968;2023-08-06T07:21:18;4.80;;;4.40;;
9860;SDS011;4969;52.304;4.968;2023-08-06T07:23:45;4.38;;;4.00;;
9860;SDS011;4969;52.304;4.968;2023-08-06T07:26:11;6.10;;;4.40;;
9860;SDS011;4969;52.304;4.968;2023-08-06T07:28:38;5.88;;;4.60;;
9860;SDS011;4969;52.304;4.968;2023-08-06T07:31:04;5.30;;;4.80;;
9860;SDS011;4969;52.304;4.968;2023-08-06T07:33:31;6.10;;;5.50;;
9860;SDS011;4969;52.304;4.968;2023-08-06T07:35:59;6.00;;;5.40;;
9860;SDS011;4969;52.304;4.968;2023-08-06T07:38:25;5.88;;;5.38;;
9860;SDS011;4969;52.304;4.968;2023-08-06T07:40:53;6.78;;;6.07;;
9860;SDS011;4969;52.304;4.968;2023-08-06T07:43:19;6.30;;;5.90;;
9860;SDS011;4969;52.304;4.968;2023-08-06T07:45:46;8.68;;;7.88;;
9860;SDS011;4969;52.304;4.968;2023-08-06T07:48:13;7.70;;;7.20;;
9860;SDS011;4969;52.304;4.968;2023-08-06T07:50:39;9.18;;;7.82;;
9860;SDS011;4969;52.304;4.968;2023-08-06T07:53:07;8.90;;;8.10;;
9860;SDS011;4969;52.304;4.968;2023-08-06T07:55:34;9.18;;;8.48;;
9860;SDS011;4969;52.304;4.968;2023-08-06T07:58:00;8.02;;;6.88;;
9860;SDS011;4969;52.304;4.968;2023-08-06T08:00:27;10.70;;;9.73;;
9860;SDS011;4969;52.304;4.968;2023-08-06T08:02:53;9.55;;;8.75;;
9860;SDS011;4969;52.304;4.968;2023-08-06T08:05:20;6.60;;;6.05;;
9860;SDS011;4969;52.304;4.968;2023-08-06T08:07:47;9.60;;;8.60;;
9860;SDS011;4969;52.304;4.968;2023-08-06T08:10:15;7.15;;;6.55;;
9860;SDS011;4969;52.304;4.968;2023-08-06T08:12:41;7.90;;;7.10;;
9860;SDS011;4969;52.304;4.968;2023-08-06T08:15:08;7.47;;;6.35;;
9860;SDS011;4969;52.304;4.968;2023-08-06T08:17:35;7.15;;;6.55;;
9860;SDS011;4969;52.304;4.968;2023-08-06T08:20:02;6.30;;;5.72;;
9860;SDS011;4969;52.304;4.968;2023-08-06T08:22:30;5.95;;;5.47;;
9860;SDS011;4969;52.304;4.968;2023-08-06T08:24:56;7.40;;;6.40;;
9860;SDS011;4969;52.304;4.968;2023-08-06T08:27:24;6.82;;;6.00;;
9860;SDS011;4969;52.304;4.968;2023-08-06T08:29:51;6.35;;;5.75;;
9860;SDS011;4969;52.304;4.968;2023-08-06T08:32:17;6.07;;;5.45;;
9860;SDS011;4969;52.304;4.968;2023-08-06T08:34:44;6.28;;;5.78;;
9860;SDS011;4969;52.304;4.968;2023-08-06T08:37:11;5.82;;;5.32;;
9860;SDS011;4969;52.304;4.968;2023-08-06T08:39:37;5.78;;;5.22;;
9860;SDS011;4969;52.304;4.968;2023-08-06T08:42:04;5.45;;;4.82;;
9860;SDS011;4969;52.304;4.968;2023-08-06T08:44:33;5.50;;;5.00;;
9860;SDS011;4969;52.304;4.968;2023-08-06T08:47:04;6.72;;;5.10;;
9860;SDS011;4969;52.304;4.968;2023-08-06T08:49:31;5.30;;;4.55;;
9860;SDS011;4969;52.304;4.968;2023-08-06T08:51:58;7.03;;;5.22;;
9860;SDS011;4969;52.304;4.968;2023-08-06T08:54:27;6.03;;;5.47;;
9860;SDS011;4969;52.304;4.968;2023-08-06T08:56:57;7.25;;;5.28;;
9860;SDS011;4969;52.304;4.968;2023-08-06T08:59:23;11.98;;;5.30;;
9860;SDS011;4969;52.304;4.968;2023-08-06T09:01:51;5.68;;;5.18;;
9860;SDS011;4969;52.304;4.968;2023-08-06T09:04:20;9.88;;;5.63;;
9860;SDS011;4969;52.304;4.968;2023-08-06T09:06:50;8.27;;;6.03;;
9860;SDS011;4969;52.304;4.968;2023-08-06T09:09:20;7.35;;;5.40;;
9860;SDS011;4969;52.304;4.968;2023-08-06T09:11:50;5.47;;;4.88;;
9860;SDS011;4969;52.304;4.968;2023-08-06T09:14:18;5.65;;;4.90;;
9860;SDS011;4969;52.304;4.968;2023-08-06T09:16:44;5.18;;;4.43;;
9860;SDS011;4969;52.304;4.968;2023-08-06T09:19:14;7.47;;;4.97;;
9860;SDS011;4969;52.304;4.968;2023-08-06T09:21:42;5.80;;;4.82;;
9860;SDS011;4969;52.304;4.968;2023-08-06T09:24:09;7.30;;;4.93;;
9860;SDS011;4969;52.304;4.968;2023-08-06T09:26:36;6.15;;;4.63;;
9860;SDS011;4969;52.304;4.968;2023-08-06T09:29:04;5.05;;;4.28;;
9860;SDS011;4969;52.304;4.968;2023-08-06T09:31:38;4.80;;;4.20;;
9860;SDS011;4969;52.304;4.968;2023-08-06T09:34:10;5.35;;;4.15;;
9860;SDS011;4969;52.304;4.968;2023-08-06T09:36:40;5.50;;;4.28;;
9860;SDS011;4969;52.304;4.968;2023-08-06T09:39:12;5.90;;;4.00;;
9860;SDS011;4969;52.304;4.968;2023-08-06T09:41:40;6.88;;;3.83;;
9860;SDS011;4969;52.304;4.968;2023-08-06T09:44:11;4.65;;;3.17;;
9860;SDS011;4969;52.304;4.968;2023-08-06T09:46:42;5.20;;;3.75;;
9860;SDS011;4969;52.304;4.968;2023-08-06T09:49:09;4.90;;;3.22;;
9860;SDS011;4969;52.304;4.968;2023-08-06T09:51:36;4.57;;;3.15;;
9860;SDS011;4969;52.304;4.968;2023-08-06T09:54:06;3.45;;;3.15;;
9860;SDS011;4969;52.304;4.968;2023-08-06T09:56:33;5.53;;;3.05;;
9860;SDS011;4969;52.304;4.968;2023-08-06T09:59:02;4.05;;;2.95;;
9860;SDS011;4969;52.304;4.968;2023-08-06T10:01:30;4.95;;;2.53;;
9860;SDS011;4969;52.304;4.968;2023-08-06T10:03:58;4.38;;;2.55;;
9860;SDS011;4969;52.304;4.968;2023-08-06T10:06:26;3.72;;;2.47;;
9860;SDS011;4969;52.304;4.968;2023-08-06T10:08:53;4.35;;;2.50;;
9860;SDS011;4969;52.304;4.968;2023-08-06T10:11:21;4.10;;;2.38;;
9860;SDS011;4969;52.304;4.968;2023-08-06T10:13:50;4.03;;;2.30;;
9860;SDS011;4969;52.304;4.968;2023-08-06T10:16:18;3.00;;;2.28;;
9860;SDS011;4969;52.304;4.968;2023-08-06T10:18:46;4.32;;;2.35;;
9860;SDS011;4969;52.304;4.968;2023-08-06T10:21:14;2.45;;;2.20;;
9860;SDS011;4969;52.304;4.968;2023-08-06T10:23:42;3.63;;;2.25;;
9860;SDS011;4969;52.304;4.968;2023-08-06T10:26:08;3.13;;;2.30;;
9860;SDS011;4969;52.304;4.968;2023-08-06T10:28:37;3.22;;;2.20;;
9860;SDS011;4969;52.304;4.968;2023-08-06T10:31:04;2.30;;;2.10;;
9860;SDS011;4969;52.304;4.968;2023-08-06T10:33:40;3.03;;;2.08;;
9860;SDS011;4969;52.304;4.968;2023-08-06T10:36:08;4.63;;;2.42;;
9860;SDS011;4969;52.304;4.968;2023-08-06T10:38:36;3.70;;;2.22;;
9860;SDS011;4969;52.304;4.968;2023-08-06T10:41:15;4.40;;;2.00;;
9860;SDS011;4969;52.304;4.968;2023-08-06T10:43:43;3.75;;;2.22;;
9860;SDS011;4969;52.304;4.968;2023-08-06T10:46:21;2.97;;;2.00;;
9860;SDS011;4969;52.304;4.968;2023-08-06T10:48:49;4.00;;;1.98;;
9860;SDS011;4969;52.304;4.968;2023-08-06T10:51:15;5.30;;;1.80;;
9860;SDS011;4969;52.304;4.968;2023-08-06T10:53:43;2.38;;;2.17;;
9860;SDS011;4969;52.304;4.968;2023-08-06T10:56:14;2.88;;;2.00;;
9860;SDS011;4969;52.304;4.968;2023-08-06T10:58:41;3.22;;;2.08;;
9860;SDS011;4969;52.304;4.968;2023-08-06T11:01:09;2.58;;;2.40;;
9860;SDS011;4969;52.304;4.968;2023-08-06T11:03:36;2.10;;;1.90;;
9860;SDS011;4969;52.304;4.968;2023-08-06T11:06:03;2.83;;;1.80;;
9860;SDS011;4969;52.304;4.968;2023-08-06T11:08:32;2.45;;;1.85;;
9860;SDS011;4969;52.304;4.968;2023-08-06T11:11:07;3.20;;;1.70;;
9860;SDS011;4969;52.304;4.968;2023-08-06T11:13:34;2.80;;;1.75;;
9860;SDS011;4969;52.304;4.968;2023-08-06T11:16:00;3.17;;;1.90;;
9860;SDS011;4969;52.304;4.968;2023-08-06T11:18:29;2.13;;;1.92;;
9860;SDS011;4969;52.304;4.968;2023-08-06T11:20:58;3.45;;;2.13;;
9860;SDS011;4969;52.304;4.968;2023-08-06T11:23:25;3.85;;;2.15;;
9860;SDS011;4969;52.304;4.968;2023-08-06T11:25:53;2.35;;;2.00;;
9860;SDS011;4969;52.304;4.968;2023-08-06T11:28:19;2.50;;;1.90;;
9860;SDS011;4969;52.304;4.968;2023-08-06T11:30:47;2.05;;;1.90;;
9860;SDS011;4969;52.304;4.968;2023-08-06T11:33:13;3.10;;;2.03;;
9860;SDS011;4969;52.304;4.968;2023-08-06T11:35:41;3.30;;;1.77;;
9860;SDS011;4969;52.304;4.968;2023-08-06T11:38:08;2.15;;;1.50;;
9860;SDS011;4969;52.304;4.968;2023-08-06T11:40:35;2.15;;;1.70;;
9860;SDS011;4969;52.304;4.968;2023-08-06T11:43:02;1.77;;;1.63;;
9860;SDS011;4969;52.304;4.968;2023-08-06T11:45:28;2.53;;;2.13;;
9860;SDS011;4969;52.304;4.968;2023-08-06T11:47:55;2.47;;;1.65;;
9860;SDS011;4969;52.304;4.968;2023-08-06T11:50:22;2.10;;;1.80;;
9860;SDS011;4969;52.304;4.968;2023-08-06T11:52:53;3.42;;;1.90;;
9860;SDS011;4969;52.304;4.968;2023-08-06T11:55:22;2.38;;;1.90;;
9860;SDS011;4969;52.304;4.968;2023-08-06T11:57:50;3.95;;;1.98;;
9860;SDS011;4969;52.304;4.968;2023-08-06T12:00:16;4.03;;;2.20;;
9860;SDS011;4969;52.304;4.968;2023-08-06T12:02:45;2.40;;;1.95;;
9860;SDS011;4969;52.304;4.968;2023-08-06T12:05:14;2.00;;;1.77;;
9860;SDS011;4969;52.304;4.968;2023-08-06T12:07:42;3.03;;;2.00;;
9860;SDS011;4969;52.304;4.968;2023-08-06T12:10:12;2.50;;;2.03;;
9860;SDS011;4969;52.304;4.968;2023-08-06T12:12:39;2.45;;;2.05;;
9860;SDS011;4969;52.304;4.968;2023-08-06T12:15:06;1.90;;;1.73;;
9860;SDS011;4969;52.304;4.968;2023-08-06T12:17:34;3.08;;;1.90;;
9860;SDS011;4969;52.304;4.968;2023-08-06T12:20:01;1.98;;;1.88;;
9860;SDS011;4969;52.304;4.968;2023-08-06T12:22:29;2.55;;;2.30;;
9860;SDS011;4969;52.304;4.968;2023-08-06T12:24:57;2.33;;;2.13;;
9860;SDS011;4969;52.304;4.968;2023-08-06T12:27:25;3.13;;;1.98;;
9860;SDS011;4969;52.304;4.968;2023-08-06T12:29:52;3.03;;;2.00;;
9860;SDS011;4969;52.304;4.968;2023-08-06T12:32:18;4.78;;;1.90;;
9860;SDS011;4969;52.304;4.968;2023-08-06T12:34:45;3.10;;;2.20;;
9860;SDS011;4969;52.304;4.968;2023-08-06T12:37:12;4.65;;;2.17;;
9860;SDS011;4969;52.304;4.968;2023-08-06T12:39:39;2.88;;;2.17;;
9860;SDS011;4969;52.304;4.968;2023-08-06T12:42:06;3.10;;;1.73;;
9860;SDS011;4969;52.304;4.968;2023-08-06T12:44:34;2.10;;;1.92;;
9860;SDS011;4969;52.304;4.968;2023-08-06T12:47:00;2.45;;;1.92;;
9860;SDS011;4969;52.304;4.968;2023-08-06T12:49:27;2.17;;;1.80;;
9860;SDS011;4969;52.304;4.968;2023-08-06T12:51:54;5.45;;;2.00;;
9860;SDS011;4969;52.304;4.968;2023-08-06T12:54:22;2.28;;;1.83;;
9860;SDS011;4969;52.304;4.968;2023-08-06T12:56:49;1.85;;;1.73;;
9860;SDS011;4969;52.304;4.968;2023-08-06T12:59:16;3.25;;;1.83;;
9860;SDS011;4969;52.304;4.968;2023-08-06T13:01:44;2.47;;;1.90;;
9860;SDS011;4969;52.304;4.968;2023-08-06T13:04:13;2.55;;;1.83;;
9860;SDS011;4969;52.304;4.968;2023-08-06T13:06:40;1.60;;;1.50;;
9860;SDS011;4969;52.304;4.968;2023-08-06T13:09:06;1.95;;;1.50;;
9860;SDS011;4969;52.304;4.968;2023-08-06T13:11:33;2.30;;;1.92;;
9860;SDS011;4969;52.304;4.968;2023-08-06T13:14:03;3.45;;;1.90;;
9860;SDS011;4969;52.304;4.968;2023-08-06T13:16:31;1.80;;;1.70;;
9860;SDS011;4969;52.304;4.968;2023-08-06T13:18:59;2.05;;;1.77;;
9860;SDS011;4969;52.304;4.968;2023-08-06T13:21:32;2.63;;;1.63;;
9860;SDS011;4969;52.304;4.968;2023-08-06T13:24:00;1.60;;;1.48;;
9860;SDS011;4969;52.304;4.968;2023-08-06T13:26:27;3.45;;;1.60;;
9860;SDS011;4969;52.304;4.968;2023-08-06T13:28:56;1.65;;;1.50;;
9860;SDS011;4969;52.304;4.968;2023-08-06T13:31:23;1.60;;;1.40;;
9860;SDS011;4969;52.304;4.968;2023-08-06T13:33:50;1.50;;;1.40;;
9860;SDS011;4969;52.304;4.968;2023-08-06T13:36:18;1.90;;;1.67;;
9860;SDS011;4969;52.304;4.968;2023-08-06T13:38:44;3.25;;;1.80;;
9860;SDS011;4969;52.304;4.968;2023-08-06T13:41:11;2.17;;;1.60;;
9860;SDS011;4969;52.304;4.968;2023-08-06T13:43:38;1.63;;;1.50;;
9860;SDS011;4969;52.304;4.968;2023-08-06T13:46:04;3.17;;;1.70;;
9860;SDS011;4969;52.304;4.968;2023-08-06T13:48:31;2.20;;;1.85;;
9860;SDS011;4969;52.304;4.968;2023-08-06T13:50:58;3.70;;;1.70;;
9860;SDS011;4969;52.304;4.968;2023-08-06T13:53:26;2.08;;;1.77;;
9860;SDS011;4969;52.304;4.968;2023-08-06T13:55:55;1.80;;;1.70;;
9860;SDS011;4969;52.304;4.968;2023-08-06T13:58:21;2.95;;;1.50;;
9860;SDS011;4969;52.304;4.968;2023-08-06T14:00:48;1.65;;;1.48;;
9860;SDS011;4969;52.304;4.968;2023-08-06T14:03:17;1.88;;;1.60;;
9860;SDS011;4969;52.304;4.968;2023-08-06T14:05:44;2.15;;;1.63;;
9860;SDS011;4969;52.304;4.968;2023-08-06T14:08:11;2.38;;;1.80;;
9860;SDS011;4969;52.304;4.968;2023-08-06T14:10:40;1.85;;;1.60;;
9860;SDS011;4969;52.304;4.968;2023-08-06T14:13:06;4.35;;;2.30;;
9860;SDS011;4969;52.304;4.968;2023-08-06T14:15:33;3.83;;;3.45;;
9860;SDS011;4969;52.304;4.968;2023-08-06T14:17:59;3.15;;;2.58;;
9860;SDS011;4969;52.304;4.968;2023-08-06T14:20:26;1.58;;;1.40;;
9860;SDS011;4969;52.304;4.968;2023-08-06T14:22:53;6.25;;;2.60;;
9860;SDS011;4969;52.304;4.968;2023-08-06T14:25:19;6.05;;;2.55;;
9860;SDS011;4969;52.304;4.968;2023-08-06T14:27:50;4.57;;;2.38;;
9860;SDS011;4969;52.304;4.968;2023-08-06T14:30:17;5.40;;;2.75;;
9860;SDS011;4969;52.304;4.968;2023-08-06T14:32:44;4.00;;;1.98;;
9860;SDS011;4969;52.304;4.968;2023-08-06T14:35:10;5.97;;;2.20;;
9860;SDS011;4969;52.304;4.968;2023-08-06T14:37:37;8.90;;;2.33;;
9860;SDS011;4969;52.304;4.968;2023-08-06T14:40:04;6.72;;;1.80;;
9860;SDS011;4969;52.304;4.968;2023-08-06T14:42:32;6.53;;;1.95;;
9860;SDS011;4969;52.304;4.968;2023-08-06T14:45:00;6.57;;;1.95;;
9860;SDS011;4969;52.304;4.968;2023-08-06T14:47:26;5.20;;;1.52;;
9860;SDS011;4969;52.304;4.968;2023-08-06T14:49:53;9.38;;;2.17;;
9860;SDS011;4969;52.304;4.968;2023-08-06T14:52:19;3.92;;;1.73;;
9860;SDS011;4969;52.304;4.968;2023-08-06T14:54:46;5.28;;;1.90;;
9860;SDS011;4969;52.304;4.968;2023-08-06T14:57:13;6.25;;;2.00;;
9860;SDS011;4969;52.304;4.968;2023-08-06T14:59:40;2.72;;;1.63;;
9860;SDS011;4969;52.304;4.968;2023-08-06T15:02:08;7.65;;;1.65;;
9860;SDS011;4969;52.304;4.968;2023-08-06T15:04:34;3.42;;;1.48;;
9860;SDS011;4969;52.304;4.968;2023-08-06T15:07:01;4.45;;;1.50;;
9860;SDS011;4969;52.304;4.968;2023-08-06T15:09:28;3.83;;;1.35;;
9860;SDS011;4969;52.304;4.968;2023-08-06T15:11:54;4.75;;;1.70;;
9860;SDS011;4969;52.304;4.968;2023-08-06T15:14:21;4.75;;;1.80;;